createdAt,value
2023-02-05T00:00:19.690Z,19.75
2023-02-05T00:02:47.372Z,19.67
2023-02-05T00:05:15.057Z,19.65
2023-02-05T00:07:43.128Z,21.70
2023-02-05T00:10:10.791Z,17.20
2023-02-05T00:12:38.932Z,23.48
2023-02-05T00:15:06.971Z,18.55
2023-02-05T00:17:37.248Z,19.98
2023-02-05T00:22:33.352Z,25.95
2023-02-05T00:25:01.071Z,20.25
2023-02-05T00:27:28.807Z,20.50
2023-02-05T00:29:56.665Z,25.13
2023-02-05T00:32:24.229Z,20.83
2023-02-05T00:34:52.158Z,20.23
2023-02-05T00:37:20.239Z,22.95
2023-02-05T00:39:47.781Z,22.58
2023-02-05T00:42:15.300Z,20.73
2023-02-05T00:44:42.805Z,25.63
2023-02-05T00:47:10.327Z,21.77
2023-02-05T00:49:38.442Z,29.08
2023-02-05T00:52:06.022Z,34.22
2023-02-05T00:54:33.535Z,24.50
2023-02-05T00:57:01.369Z,25.27
2023-02-05T00:59:29.423Z,23.95
2023-02-05T01:01:57.204Z,26.38
2023-02-05T01:04:24.919Z,23.33
2023-02-05T01:06:52.519Z,24.75
2023-02-05T01:09:20.464Z,26.33
2023-02-05T01:11:48.011Z,23.27
2023-02-05T01:14:15.539Z,26.80
2023-02-05T01:16:43.702Z,27.90
2023-02-05T01:19:12.106Z,26.33
2023-02-05T01:21:39.760Z,25.30
2023-02-05T01:24:08.227Z,32.42
2023-02-05T01:26:36.163Z,26.42
2023-02-05T01:29:04.533Z,26.52
2023-02-05T01:31:33.330Z,28.75
2023-02-05T01:34:01.759Z,29.45
2023-02-05T01:36:29.551Z,25.30
2023-02-05T01:38:57.008Z,31.27
2023-02-05T01:41:25.667Z,47.63
2023-02-05T01:44:10.321Z,28.75
2023-02-05T01:46:41.141Z,25.98
2023-02-05T01:49:14.676Z,27.42
2023-02-05T01:51:43.496Z,24.65
2023-02-05T01:54:11.477Z,25.50
2023-02-05T01:56:48.750Z,28.67
2023-02-05T01:59:25.687Z,31.73
2023-02-05T02:01:54.209Z,31.80
2023-02-05T02:04:42.480Z,34.03
2023-02-05T02:07:14.782Z,31.27
2023-02-05T02:09:45.434Z,30.05
2023-02-05T02:12:16.205Z,27.80
2023-02-05T02:14:48.065Z,28.50
2023-02-05T02:17:16.697Z,31.92
2023-02-05T02:20:03.388Z,27.00
2023-02-05T02:22:56.192Z,27.50
2023-02-05T02:25:59.088Z,23.73
2023-02-05T02:28:32.882Z,24.25
2023-02-05T02:31:12.642Z,21.80
2023-02-05T02:33:46.247Z,21.48
2023-02-05T02:36:21.183Z,24.52
2023-02-05T02:39:21.081Z,21.35
2023-02-05T02:42:02.441Z,23.35
2023-02-05T02:44:40.526Z,26.42
2023-02-05T02:47:34.995Z,22.13
2023-02-05T02:50:09.493Z,22.30
2023-02-05T02:52:41.231Z,22.67
2023-02-05T02:55:13.326Z,24.00
2023-02-05T02:57:49.061Z,21.27
2023-02-05T03:00:22.231Z,20.77
2023-02-05T03:02:54.491Z,20.60
2023-02-05T03:05:25.660Z,19.40
2023-02-05T03:07:59.575Z,20.45
2023-02-05T03:10:37.493Z,22.38
2023-02-05T03:13:11.288Z,22.63
2023-02-05T03:15:43.809Z,19.27
2023-02-05T03:18:13.933Z,20.70
2023-02-05T03:21:05.604Z,21.35
2023-02-05T03:23:33.228Z,18.80
2023-02-05T03:26:01.312Z,16.80
2023-02-05T03:28:38.804Z,17.83
2023-02-05T03:31:37.733Z,17.02
2023-02-05T03:34:20.792Z,19.17
2023-02-05T03:37:10.430Z,19.85
2023-02-05T03:40:02.051Z,18.55
2023-02-05T03:42:56.063Z,16.00
2023-02-05T03:45:48.271Z,18.88
2023-02-05T03:48:39.651Z,15.02
2023-02-05T03:51:28.305Z,18.58
2023-02-05T03:54:26.279Z,18.73
2023-02-05T03:57:09.942Z,17.55
2023-02-05T03:59:40.568Z,18.50
2023-02-05T04:02:08.732Z,17.83
2023-02-05T04:04:40.857Z,16.33
2023-02-05T04:07:10.882Z,19.85
2023-02-05T04:09:39.568Z,19.55
2023-02-05T04:12:10.873Z,17.17
2023-02-05T04:14:40.060Z,17.27
2023-02-05T04:17:12.380Z,17.15
2023-02-05T04:19:41.667Z,17.25
2023-02-05T04:22:11.101Z,17.00
2023-02-05T04:24:43.722Z,15.02
2023-02-05T04:27:11.382Z,18.27
2023-02-05T04:29:39.414Z,14.95
2023-02-05T04:32:07.397Z,17.25
2023-02-05T04:34:35.918Z,14.77
2023-02-05T04:37:05.149Z,20.17
2023-02-05T04:39:32.798Z,17.95
2023-02-05T04:42:01.938Z,17.88
2023-02-05T04:44:29.759Z,17.75
2023-02-05T04:46:57.421Z,16.08
2023-02-05T04:49:25.401Z,17.80
2023-02-05T04:51:52.913Z,22.58
2023-02-05T04:54:20.774Z,18.90
2023-02-05T04:56:48.356Z,20.20
2023-02-05T04:59:15.879Z,22.30
2023-02-05T05:01:43.357Z,22.02
2023-02-05T05:04:11.023Z,20.90
2023-02-05T05:06:39.565Z,26.50
2023-02-05T05:09:07.135Z,30.55
2023-02-05T05:11:39.521Z,31.67
2023-02-05T05:14:07.398Z,35.28
2023-02-05T05:16:35.009Z,32.28
2023-02-05T05:19:02.626Z,29.50
2023-02-05T05:21:30.326Z,25.85
2023-02-05T05:23:57.883Z,25.25
2023-02-05T05:26:25.519Z,27.00
2023-02-05T05:28:54.929Z,28.63
2023-02-05T05:31:23.711Z,17.98
2023-02-05T05:33:51.607Z,17.33
2023-02-05T05:36:19.308Z,19.92
2023-02-05T05:38:47.037Z,25.80
2023-02-05T05:41:43.562Z,19.85
2023-02-05T05:44:11.257Z,21.30
2023-02-05T05:46:41.368Z,17.90
2023-02-05T05:49:09.067Z,18.90
2023-02-05T05:51:36.742Z,18.85
2023-02-05T05:54:04.364Z,17.35
2023-02-05T05:56:32.104Z,20.02
2023-02-05T05:58:59.642Z,17.63
2023-02-05T06:01:27.899Z,18.30
2023-02-05T06:03:55.497Z,20.67
2023-02-05T06:06:23.037Z,19.05
2023-02-05T06:08:50.584Z,18.13
2023-02-05T06:11:18.092Z,17.42
2023-02-05T06:13:45.760Z,18.48
2023-02-05T06:16:13.785Z,18.58
2023-02-05T06:18:41.322Z,19.40
2023-02-05T06:21:10.820Z,19.00
2023-02-05T06:23:39.289Z,18.55
2023-02-05T06:26:06.935Z,15.25
2023-02-05T06:28:34.572Z,17.75
2023-02-05T06:31:02.142Z,20.27
2023-02-05T06:33:30.017Z,16.30
2023-02-05T06:35:57.785Z,15.35
2023-02-05T06:38:25.442Z,19.77
2023-02-05T06:40:53.077Z,16.45
2023-02-05T06:43:20.649Z,16.65
2023-02-05T06:45:48.629Z,15.60
2023-02-05T06:48:16.264Z,18.33
2023-02-05T06:50:43.797Z,16.67
2023-02-05T06:53:11.970Z,19.25
2023-02-05T06:55:40.085Z,19.65
2023-02-05T06:58:08.006Z,16.92
2023-02-05T07:00:36.209Z,17.23
2023-02-05T07:03:04.315Z,18.50
2023-02-05T07:05:35.150Z,27.33
2023-02-05T07:08:04.272Z,28.20
2023-02-05T07:10:31.938Z,35.17
2023-02-05T07:12:59.496Z,39.17
2023-02-05T07:15:27.545Z,42.97
2023-02-05T07:17:55.465Z,39.30
2023-02-05T07:20:23.495Z,41.17
2023-02-05T07:22:51.036Z,48.50
2023-02-05T07:25:18.642Z,56.42
2023-02-05T07:27:46.548Z,53.45
2023-02-05T07:30:14.727Z,51.40
2023-02-05T07:32:42.681Z,36.93
2023-02-05T07:35:10.224Z,37.05
2023-02-05T07:37:39.566Z,35.20
2023-02-05T07:40:07.913Z,33.23
2023-02-05T07:42:35.748Z,33.33
2023-02-05T07:45:04.946Z,33.37
2023-02-05T07:47:32.742Z,32.88
2023-02-05T07:50:00.270Z,37.35
2023-02-05T07:52:27.969Z,36.97
2023-02-05T07:54:55.717Z,36.03
2023-02-05T07:57:23.623Z,32.75
2023-02-05T07:59:51.140Z,31.30
2023-02-05T08:02:18.674Z,47.35
2023-02-05T08:04:46.267Z,43.90
2023-02-05T08:07:14.526Z,46.00
2023-02-05T08:09:42.194Z,39.28
2023-02-05T08:12:09.818Z,29.00
2023-02-05T08:14:37.430Z,28.02
2023-02-05T08:17:06.294Z,30.95
2023-02-05T08:19:34.043Z,26.30
2023-02-05T08:22:01.606Z,23.10
2023-02-05T08:24:29.328Z,22.77
2023-02-05T08:26:57.107Z,21.25
2023-02-05T08:29:24.646Z,15.60
2023-02-05T08:31:52.259Z,15.88
2023-02-05T08:34:20.873Z,20.13
2023-02-05T08:36:48.643Z,20.17
2023-02-05T08:39:16.460Z,19.25
2023-02-05T08:41:44.261Z,19.75
2023-02-05T08:44:11.785Z,16.52
2023-02-05T08:46:49.397Z,14.80
2023-02-05T08:49:18.507Z,14.83
2023-02-05T08:51:46.765Z,13.35
2023-02-05T08:54:15.336Z,19.80
2023-02-05T08:56:45.193Z,15.40
2023-02-05T08:59:13.113Z,14.77
2023-02-05T09:01:43.085Z,16.08
2023-02-05T09:04:16.891Z,19.27
2023-02-05T09:06:45.008Z,17.25
2023-02-05T09:09:14.229Z,18.02
2023-02-05T09:11:42.409Z,17.20
2023-02-05T09:14:10.277Z,16.05
2023-02-05T09:16:38.489Z,16.55
2023-02-05T09:19:06.529Z,18.75
2023-02-05T09:21:35.567Z,16.98
2023-02-05T09:24:04.204Z,14.68
2023-02-05T09:26:32.029Z,18.00
2023-02-05T09:28:59.617Z,14.45
2023-02-05T09:31:27.508Z,18.48
2023-02-05T09:33:55.925Z,16.35
2023-02-05T09:36:24.058Z,17.92
2023-02-05T09:39:02.021Z,15.57
2023-02-05T09:41:42.908Z,14.63
2023-02-05T09:44:48.958Z,15.77
2023-02-05T09:47:35.650Z,16.00
2023-02-05T09:50:15.459Z,14.45
2023-02-05T09:52:49.778Z,17.02
2023-02-05T09:55:29.989Z,16.02
2023-02-05T09:58:06.684Z,16.90
2023-02-05T10:00:42.250Z,17.55
2023-02-05T10:03:30.328Z,17.10
2023-02-05T10:06:03.754Z,18.90
2023-02-05T10:08:40.975Z,17.80
2023-02-05T10:11:20.330Z,14.68
2023-02-05T10:14:03.232Z,13.88
2023-02-05T10:16:47.391Z,14.15
2023-02-05T10:19:18.023Z,14.82
2023-02-05T10:21:55.003Z,20.30
2023-02-05T10:24:54.672Z,17.67
2023-02-05T10:27:41.697Z,18.20
2023-02-05T10:30:24.238Z,20.45
2023-02-05T10:32:59.865Z,12.52
2023-02-05T10:35:51.455Z,14.70
2023-02-05T10:38:24.758Z,13.32
2023-02-05T10:41:00.243Z,17.38
2023-02-05T10:43:34.261Z,16.98
2023-02-05T10:46:02.728Z,17.67
2023-02-05T10:48:56.647Z,11.75
2023-02-05T10:51:45.360Z,13.45
2023-02-05T10:54:16.353Z,15.23
2023-02-05T10:56:44.598Z,15.38
2023-02-05T10:59:27.021Z,14.70
2023-02-05T11:02:03.971Z,19.42
2023-02-05T11:04:39.000Z,15.23
2023-02-05T11:07:24.700Z,15.75
2023-02-05T11:09:53.361Z,15.57
2023-02-05T11:12:30.074Z,15.68
2023-02-05T11:15:00.452Z,13.63
2023-02-05T11:17:35.136Z,13.68
2023-02-05T11:20:28.485Z,16.85
2023-02-05T11:23:18.084Z,17.55
2023-02-05T11:25:57.149Z,20.90
2023-02-05T11:28:33.036Z,15.93
2023-02-05T11:31:25.571Z,16.98
2023-02-05T11:34:14.377Z,20.33
2023-02-05T11:36:53.778Z,23.15
2023-02-05T11:39:36.440Z,19.83
2023-02-05T11:42:09.627Z,41.08
2023-02-05T11:44:48.492Z,22.92
2023-02-05T11:47:27.579Z,17.93
2023-02-05T11:49:56.618Z,21.02
2023-02-05T11:52:37.495Z,16.23
2023-02-05T11:55:06.883Z,11.15
2023-02-05T11:57:39.135Z,14.95
2023-02-05T12:00:09.936Z,15.05
2023-02-05T12:02:42.677Z,10.50
2023-02-05T12:05:20.044Z,12.82
2023-02-05T12:08:26.896Z,12.85
2023-02-05T12:11:52.741Z,14.30
2023-02-05T12:14:38.280Z,17.23
2023-02-05T12:17:17.477Z,16.70
2023-02-05T12:19:57.155Z,17.20
2023-02-05T12:22:30.405Z,16.15
2023-02-05T12:25:46.246Z,15.45
2023-02-05T12:28:26.437Z,16.15
2023-02-05T12:31:24.500Z,15.90
2023-02-05T12:34:24.385Z,17.08
2023-02-05T12:37:07.015Z,19.83
2023-02-05T12:39:46.484Z,17.10
2023-02-05T12:44:53.613Z,15.52
2023-02-05T12:47:31.477Z,50.50
2023-02-05T12:50:08.057Z,18.08
2023-02-05T12:52:51.567Z,17.55
2023-02-05T12:56:03.925Z,16.52
2023-02-05T12:58:42.583Z,14.05
2023-02-05T13:01:50.177Z,14.27
2023-02-05T13:04:37.944Z,16.23
2023-02-05T13:07:29.435Z,14.88
2023-02-05T13:10:06.846Z,14.10
2023-02-05T13:12:41.842Z,12.88
2023-02-05T13:15:12.356Z,13.88
2023-02-05T13:17:49.808Z,15.88
2023-02-05T13:20:44.493Z,17.63
2023-02-05T13:23:33.506Z,21.42
2023-02-05T13:26:22.288Z,16.45
2023-02-05T13:28:55.754Z,18.13
2023-02-05T13:31:43.571Z,17.48
2023-02-05T13:34:15.409Z,18.50
2023-02-05T13:37:20.429Z,19.23
2023-02-05T13:40:14.377Z,21.65
2023-02-05T13:42:56.651Z,20.55
2023-02-05T13:45:52.605Z,25.90
2023-02-05T13:48:41.967Z,20.58
2023-02-05T13:51:28.256Z,22.83
2023-02-05T13:54:31.053Z,22.00
2023-02-05T13:57:36.466Z,19.63
2023-02-05T14:00:09.074Z,22.38
2023-02-05T14:02:48.965Z,21.75
2023-02-05T14:05:32.459Z,24.60
2023-02-05T14:08:03.314Z,24.80
2023-02-05T14:10:39.343Z,25.48
2023-02-05T14:13:28.612Z,24.83
2023-02-05T14:18:40.590Z,24.55
2023-02-05T14:21:34.619Z,19.58
2023-02-05T14:24:23.087Z,19.35
2023-02-05T14:26:53.179Z,17.67
2023-02-05T14:29:44.894Z,18.70
2023-02-05T14:32:34.138Z,17.20
2023-02-05T14:35:25.179Z,20.38
2023-02-05T14:37:56.997Z,19.02
2023-02-05T14:40:37.308Z,15.95
2023-02-05T14:43:16.915Z,21.23
2023-02-05T14:45:50.205Z,23.13
2023-02-05T14:48:28.554Z,21.98
2023-02-05T14:51:19.029Z,20.15
2023-02-05T14:53:56.283Z,19.52
2023-02-05T14:57:04.911Z,18.38
2023-02-05T14:59:43.865Z,23.77
2023-02-05T15:02:55.762Z,24.45
2023-02-05T15:05:51.107Z,23.92
2023-02-05T15:08:27.912Z,25.02
2023-02-05T15:11:37.698Z,25.48
2023-02-05T15:14:24.680Z,26.83
2023-02-05T15:17:07.857Z,29.40
2023-02-05T15:19:52.659Z,30.20
2023-02-05T15:22:35.233Z,33.58
2023-02-05T15:25:10.099Z,30.95
2023-02-05T15:27:45.439Z,27.48
2023-02-05T15:30:26.508Z,28.48
2023-02-05T15:33:05.809Z,27.33
2023-02-05T15:35:34.634Z,24.08
2023-02-05T15:38:20.094Z,35.22
2023-02-05T15:40:47.955Z,19.55
2023-02-05T15:43:19.138Z,21.25
2023-02-05T15:45:47.368Z,23.73
2023-02-05T15:48:19.112Z,23.50
2023-02-05T15:50:54.947Z,26.40
2023-02-05T15:53:43.251Z,22.20
2023-02-05T15:56:20.084Z,22.70
2023-02-05T15:58:55.049Z,22.08
2023-02-05T16:01:48.000Z,23.33
2023-02-05T16:04:20.081Z,22.95
2023-02-05T16:06:48.811Z,19.70
2023-02-05T16:09:22.233Z,23.30
2023-02-05T16:11:53.144Z,23.20
2023-02-05T16:14:33.290Z,24.40
2023-02-05T16:17:29.355Z,21.80
2023-02-05T16:20:13.903Z,21.67
2023-02-05T16:22:52.798Z,22.65
2023-02-05T16:25:47.842Z,21.25
2023-02-05T16:28:21.263Z,20.67
2023-02-05T16:30:53.367Z,27.55
2023-02-05T16:33:24.069Z,22.73
2023-02-05T16:35:52.579Z,19.00
2023-02-05T16:38:23.413Z,22.67
2023-02-05T16:40:55.067Z,18.95
2023-02-05T16:43:31.623Z,21.10
2023-02-05T16:46:08.327Z,20.58
2023-02-05T16:48:51.054Z,21.00
2023-02-05T16:51:45.944Z,17.77
2023-02-05T16:54:13.520Z,20.90
2023-02-05T16:56:56.353Z,21.73
2023-02-05T16:59:28.414Z,17.92
2023-02-05T17:01:56.567Z,23.08
2023-02-05T17:04:29.810Z,23.10
2023-02-05T17:07:00.404Z,17.40
2023-02-05T17:09:33.391Z,18.58
2023-02-05T17:12:20.241Z,18.52
2023-02-05T17:14:55.620Z,20.25
2023-02-05T17:17:25.892Z,18.67
2023-02-05T17:20:05.180Z,17.90
2023-02-05T17:22:34.788Z,21.27
2023-02-05T17:27:33.167Z,18.23
2023-02-05T17:30:01.053Z,20.42
2023-02-05T17:32:30.067Z,23.50
2023-02-05T17:34:59.964Z,19.95
2023-02-05T17:37:27.554Z,21.38
2023-02-05T17:39:56.810Z,20.40
2023-02-05T17:42:25.940Z,28.83
2023-02-05T17:47:21.600Z,18.92
2023-02-05T17:49:49.323Z,19.33
2023-02-05T17:52:18.778Z,18.63
2023-02-05T17:54:49.922Z,20.92
2023-02-05T17:57:22.538Z,21.27
2023-02-05T17:59:53.378Z,18.67
2023-02-05T18:02:21.473Z,22.45
2023-02-05T18:07:35.201Z,21.92
2023-02-05T18:10:06.138Z,21.48
2023-02-05T18:12:34.198Z,18.77
2023-02-05T18:15:01.850Z,19.38
2023-02-05T18:17:29.905Z,25.52
2023-02-05T18:19:57.529Z,21.10
2023-02-05T18:22:25.177Z,21.00
2023-02-05T18:24:55.830Z,21.63
2023-02-05T18:27:23.998Z,20.65
2023-02-05T18:29:51.766Z,22.30
2023-02-05T18:32:19.395Z,23.55
2023-02-05T18:34:47.160Z,20.88
2023-02-05T18:37:16.704Z,22.15
2023-02-05T18:39:45.762Z,22.80
2023-02-05T18:44:42.207Z,28.83
2023-02-05T18:47:11.432Z,17.80
2023-02-05T18:49:39.162Z,19.85
2023-02-05T18:52:07.315Z,20.17
2023-02-05T18:54:35.414Z,23.33
2023-02-05T18:57:03.220Z,20.30
2023-02-05T18:59:31.307Z,24.50
2023-02-05T19:01:58.911Z,24.30
2023-02-05T19:04:28.005Z,29.42
2023-02-05T19:06:55.690Z,34.38
2023-02-05T19:09:24.890Z,41.50
2023-02-05T19:11:55.392Z,34.25
2023-02-05T19:14:25.067Z,32.92
2023-02-05T19:16:54.627Z,43.63
2023-02-05T19:19:24.743Z,34.75
2023-02-05T19:22:00.064Z,29.73
2023-02-05T19:24:29.039Z,31.90
2023-02-05T19:26:59.051Z,39.90
2023-02-05T19:29:27.570Z,39.15
2023-02-05T19:31:58.610Z,37.88
2023-02-05T19:34:27.841Z,50.50
2023-02-05T19:36:58.511Z,48.50
2023-02-05T19:39:26.291Z,53.03
2023-02-05T19:41:54.130Z,44.65
2023-02-05T19:44:22.426Z,40.75
2023-02-05T19:46:51.136Z,50.03
2023-02-05T19:49:21.807Z,49.28
2023-02-05T19:51:54.131Z,45.28
2023-02-05T19:54:23.004Z,49.25
2023-02-05T19:56:51.424Z,51.58
2023-02-05T19:59:19.732Z,54.53
2023-02-05T20:01:47.732Z,46.67
2023-02-05T20:04:22.356Z,45.70
2023-02-05T20:06:52.220Z,47.55
2023-02-05T20:09:20.221Z,51.95
2023-02-05T20:11:49.920Z,49.35
2023-02-05T20:14:17.807Z,57.10
2023-02-05T20:16:45.946Z,56.92
2023-02-05T20:19:17.415Z,50.83
2023-02-05T20:21:46.762Z,49.22
2023-02-05T20:24:16.349Z,41.05
2023-02-05T20:26:47.867Z,48.33
2023-02-05T20:29:34.742Z,53.22
2023-02-05T20:32:02.654Z,58.53
2023-02-05T20:34:31.233Z,48.33
2023-02-05T20:37:02.368Z,44.42
2023-02-05T20:39:31.091Z,41.58
2023-02-05T20:41:59.739Z,35.83
2023-02-05T20:44:31.041Z,62.35
2023-02-05T20:46:58.761Z,27.48
2023-02-05T20:49:26.565Z,32.28
2023-02-05T20:51:54.694Z,25.63
2023-02-05T20:54:24.469Z,24.92
2023-02-05T20:56:56.899Z,24.15
2023-02-05T20:59:26.573Z,25.80
2023-02-05T21:04:22.116Z,22.50
2023-02-05T21:06:49.734Z,25.83
2023-02-05T21:09:17.384Z,23.63
2023-02-05T21:11:45.294Z,31.27
2023-02-05T21:14:17.283Z,30.92
2023-02-05T21:16:45.247Z,43.30
2023-02-05T21:19:13.580Z,35.08
2023-02-05T21:21:41.650Z,34.45
2023-02-05T21:24:12.910Z,39.03
2023-02-05T21:26:43.082Z,34.05
2023-02-05T21:29:14.385Z,32.40
2023-02-05T21:31:49.200Z,34.00
2023-02-05T21:34:21.900Z,36.83
2023-02-05T21:36:50.383Z,36.28
2023-02-05T21:39:21.679Z,35.17
2023-02-05T21:41:53.415Z,27.88
2023-02-05T21:44:21.678Z,31.90
2023-02-05T21:46:49.672Z,41.45
2023-02-05T21:49:17.308Z,32.63
2023-02-05T21:51:44.848Z,30.45
2023-02-05T21:54:12.408Z,31.63
2023-02-05T21:56:42.240Z,41.83
2023-02-05T21:59:11.757Z,40.85
2023-02-05T22:01:40.169Z,53.28
2023-02-05T22:04:12.383Z,43.17
2023-02-05T22:06:40.964Z,45.30
2023-02-05T22:09:14.284Z,48.63
2023-02-05T22:11:43.528Z,55.63
2023-02-05T22:14:11.583Z,60.17
2023-02-05T22:16:39.393Z,47.95
2023-02-05T22:19:07.937Z,52.28
2023-02-05T22:21:41.280Z,59.60
2023-02-05T22:24:14.166Z,55.72
2023-02-05T22:26:42.239Z,43.08
2023-02-05T22:29:21.050Z,46.13
2023-02-05T22:31:54.138Z,47.53
2023-02-05T22:34:21.969Z,48.22
2023-02-05T22:36:49.893Z,40.85
2023-02-05T22:39:17.470Z,44.63
2023-02-05T22:41:45.359Z,44.45
2023-02-05T22:44:13.048Z,41.47
2023-02-05T22:46:43.604Z,44.33
2023-02-05T22:49:15.324Z,38.75
2023-02-05T22:51:44.058Z,41.05
2023-02-05T22:54:13.442Z,43.90
2023-02-05T22:56:42.061Z,36.97
2023-02-05T22:59:09.669Z,43.60
2023-02-05T23:01:39.200Z,35.20
2023-02-05T23:04:08.909Z,29.30
2023-02-05T23:06:39.781Z,32.17
2023-02-05T23:09:16.520Z,24.65
2023-02-05T23:11:45.344Z,24.27
2023-02-05T23:14:17.349Z,22.88
2023-02-05T23:16:47.131Z,19.50
2023-02-05T23:19:19.035Z,24.25
2023-02-05T23:21:47.409Z,27.02
2023-02-05T23:24:15.977Z,35.88
2023-02-05T23:26:46.624Z,37.80
2023-02-05T23:29:16.020Z,40.05
2023-02-05T23:34:11.515Z,47.50
2023-02-05T23:36:39.627Z,39.28
2023-02-05T23:39:07.146Z,42.60
2023-02-05T23:41:39.848Z,43.90
2023-02-05T23:44:17.816Z,44.85
2023-02-05T23:46:47.652Z,39.42
2023-02-05T23:49:17.049Z,38.75
2023-02-05T23:51:44.533Z,42.13
2023-02-05T23:54:12.550Z,35.42
2023-02-05T23:56:41.805Z,42.15
2023-02-05T23:59:11.198Z,38.43
